createdAt,value
2023-05-05T00:01:08.094Z,71.40
2023-05-05T00:03:36.573Z,71.40
2023-05-05T00:06:05.412Z,71.50
2023-05-05T00:08:35.054Z,71.50
2023-05-05T00:11:03.318Z,71.70
2023-05-05T00:13:31.539Z,71.70
2023-05-05T00:16:00.317Z,72.40
2023-05-05T00:18:29.523Z,73.10
2023-05-05T00:20:57.749Z,73.00
2023-05-05T00:23:26.283Z,73.80
2023-05-05T00:25:56.093Z,75.10
2023-05-05T00:28:24.617Z,74.60
2023-05-05T00:30:52.819Z,75.10
2023-05-05T00:33:21.205Z,75.10
2023-05-05T00:35:49.430Z,75.60
2023-05-05T00:38:17.804Z,75.40
2023-05-05T00:40:46.002Z,75.80
2023-05-05T00:43:15.636Z,76.10
2023-05-05T00:45:47.636Z,75.40
2023-05-05T00:48:17.085Z,75.40
2023-05-05T00:50:45.872Z,76.00
2023-05-05T00:53:17.094Z,76.50
2023-05-05T00:55:47.202Z,76.70
2023-05-05T00:58:20.389Z,77.10
2023-05-05T01:00:56.554Z,77.60
2023-05-05T01:03:25.050Z,77.70
2023-05-05T01:06:00.157Z,77.40
2023-05-05T01:08:44.941Z,78.00
2023-05-05T01:11:25.260Z,77.60
2023-05-05T01:14:06.200Z,77.00
2023-05-05T01:16:36.069Z,77.10
2023-05-05T01:19:15.335Z,77.00
2023-05-05T01:21:54.662Z,77.10
2023-05-05T01:24:45.403Z,78.20
2023-05-05T01:27:49.469Z,77.70
2023-05-05T01:31:03.203Z,78.60
2023-05-05T01:33:37.863Z,78.40
2023-05-05T01:36:15.261Z,79.00
2023-05-05T01:38:46.213Z,78.80
2023-05-05T01:41:21.151Z,79.20
2023-05-05T01:43:52.382Z,79.20
2023-05-05T01:46:24.499Z,80.00
2023-05-05T01:48:56.604Z,80.20
2023-05-05T01:51:27.204Z,80.20
2023-05-05T01:54:00.887Z,79.60
2023-05-05T01:56:31.106Z,79.50
2023-05-05T01:59:01.657Z,80.50
2023-05-05T02:01:31.499Z,81.70
2023-05-05T02:04:03.070Z,81.40
2023-05-05T02:06:33.378Z,81.30
2023-05-05T02:09:03.640Z,81.60
2023-05-05T02:11:32.431Z,81.80
2023-05-05T02:14:02.331Z,82.00
2023-05-05T02:16:31.285Z,81.60
2023-05-05T02:19:05.080Z,81.90
2023-05-05T02:21:35.231Z,82.20
2023-05-05T02:24:03.723Z,82.20
2023-05-05T02:26:36.010Z,81.90
2023-05-05T02:29:08.512Z,82.20
2023-05-05T02:31:43.224Z,82.50
2023-05-05T02:34:14.514Z,82.30
2023-05-05T02:36:44.090Z,82.30
2023-05-05T02:39:20.453Z,81.90
2023-05-05T02:41:50.816Z,81.50
2023-05-05T02:44:27.169Z,81.20
2023-05-05T02:46:56.233Z,81.10
2023-05-05T02:49:26.774Z,80.50
2023-05-05T02:51:59.915Z,80.70
2023-05-05T02:54:33.643Z,80.60
2023-05-05T02:57:05.404Z,80.60
2023-05-05T02:59:40.028Z,80.20
2023-05-05T03:02:17.600Z,80.30
2023-05-05T03:04:51.576Z,80.10
2023-05-05T03:07:25.937Z,79.80
2023-05-05T03:09:59.262Z,80.20
2023-05-05T03:12:36.551Z,81.10
2023-05-05T03:15:23.460Z,81.10
2023-05-05T03:17:54.257Z,81.00
2023-05-05T03:20:25.098Z,81.20
2023-05-05T03:22:54.850Z,81.20
2023-05-05T03:25:23.461Z,81.90
2023-05-05T03:27:51.728Z,81.90
2023-05-05T03:30:22.590Z,82.20
2023-05-05T03:32:53.472Z,82.30
2023-05-05T03:35:23.151Z,82.50
2023-05-05T03:37:52.740Z,81.60
2023-05-05T03:40:23.524Z,81.30
2023-05-05T03:42:58.664Z,81.00
2023-05-05T03:45:27.351Z,80.40
2023-05-05T03:47:56.349Z,80.00
2023-05-05T03:50:25.114Z,79.20
2023-05-05T03:52:54.958Z,79.10
2023-05-05T03:55:23.756Z,79.20
2023-05-05T03:57:52.542Z,79.50
2023-05-05T04:00:21.295Z,79.40
2023-05-05T04:02:49.535Z,80.30
2023-05-05T04:05:22.593Z,80.40
2023-05-05T04:07:51.143Z,81.00
2023-05-05T04:10:21.535Z,81.20
2023-05-05T04:12:49.931Z,81.30
2023-05-05T04:15:18.229Z,82.20
2023-05-05T04:17:47.463Z,82.30
2023-05-05T04:20:15.786Z,82.70
2023-05-05T04:22:44.127Z,83.00
2023-05-05T04:25:12.500Z,83.70
2023-05-05T04:27:42.056Z,84.20
2023-05-05T04:30:11.797Z,84.60
2023-05-05T04:32:41.984Z,85.50
2023-05-05T04:35:11.523Z,86.10
2023-05-05T04:37:40.238Z,86.40
2023-05-05T04:40:10.611Z,86.40
2023-05-05T04:42:45.737Z,86.80
2023-05-05T04:45:14.257Z,86.80
2023-05-05T04:47:42.867Z,87.00
2023-05-05T04:50:15.274Z,87.30
2023-05-05T04:52:43.826Z,87.60
2023-05-05T04:55:12.588Z,87.60
2023-05-05T04:57:42.427Z,87.50
2023-05-05T05:00:14.855Z,87.30
2023-05-05T05:02:45.716Z,87.30
2023-05-05T05:05:14.243Z,87.30
2023-05-05T05:07:44.518Z,87.10
2023-05-05T05:10:40.563Z,87.00
2023-05-05T05:13:12.932Z,86.40
2023-05-05T05:15:43.474Z,85.80
2023-05-05T05:18:11.718Z,84.70
2023-05-05T05:20:40.854Z,83.40
2023-05-05T05:23:09.152Z,83.00
2023-05-05T05:25:43.348Z,81.70
2023-05-05T05:28:12.593Z,80.00
2023-05-05T05:30:48.559Z,79.60
2023-05-05T05:33:18.935Z,79.00
2023-05-05T05:35:47.858Z,77.50
2023-05-05T05:38:17.665Z,77.70
2023-05-05T05:40:46.510Z,77.70
2023-05-05T05:43:15.125Z,77.40
2023-05-05T05:45:44.101Z,77.10
2023-05-05T05:48:13.767Z,76.20
2023-05-05T05:50:42.170Z,76.80
2023-05-05T05:53:10.327Z,76.00
2023-05-05T05:55:38.683Z,75.40
2023-05-05T05:58:07.217Z,74.30
2023-05-05T06:00:38.178Z,72.90
2023-05-05T06:03:11.351Z,71.10
2023-05-05T06:05:42.043Z,69.80
2023-05-05T06:08:13.144Z,66.80
2023-05-05T06:10:48.265Z,64.60
2023-05-05T06:13:22.576Z,61.80
2023-05-05T06:15:52.949Z,60.50
2023-05-05T06:18:24.422Z,57.90
2023-05-05T06:20:54.321Z,56.00
2023-05-05T06:23:27.633Z,54.60
2023-05-05T06:26:02.716Z,54.00
2023-05-05T06:28:43.286Z,54.20
2023-05-05T06:31:12.898Z,55.80
2023-05-05T06:33:43.592Z,55.00
2023-05-05T06:36:13.147Z,53.80
2023-05-05T06:38:41.487Z,53.50
2023-05-05T06:41:14.735Z,53.60
2023-05-05T06:43:43.058Z,52.30
2023-05-05T06:46:15.667Z,51.40
2023-05-05T06:48:44.045Z,51.20
2023-05-05T06:51:13.618Z,49.30
2023-05-05T06:53:44.566Z,47.90
2023-05-05T06:56:12.767Z,47.30
2023-05-05T06:58:46.677Z,46.60
2023-05-05T07:01:14.933Z,46.10
2023-05-05T07:03:45.762Z,46.50
2023-05-05T07:06:15.269Z,46.90
2023-05-05T07:08:49.120Z,46.40
2023-05-05T07:11:26.078Z,46.80
2023-05-05T07:13:54.273Z,47.00
2023-05-05T07:16:27.175Z,46.50
2023-05-05T07:18:57.552Z,46.70
2023-05-05T07:21:29.544Z,45.70
2023-05-05T07:23:57.728Z,45.50
2023-05-05T07:26:29.157Z,45.80
2023-05-05T07:29:17.585Z,45.60
2023-05-05T07:31:47.824Z,45.00
2023-05-05T07:34:19.134Z,45.10
2023-05-05T07:36:48.712Z,43.40
2023-05-05T07:39:18.581Z,43.20
2023-05-05T07:41:46.763Z,43.80
2023-05-05T07:44:14.992Z,42.50
2023-05-05T07:46:45.411Z,42.80
2023-05-05T07:49:15.603Z,43.60
2023-05-05T07:51:43.923Z,43.30
2023-05-05T07:54:13.995Z,43.60
2023-05-05T07:56:46.088Z,42.90
2023-05-05T07:59:14.305Z,42.60
2023-05-05T08:01:43.088Z,43.10
2023-05-05T08:04:11.349Z,43.40
2023-05-05T08:06:39.595Z,44.20
2023-05-05T08:09:07.746Z,43.50
2023-05-05T08:11:37.286Z,42.80
2023-05-05T08:14:05.484Z,42.70
2023-05-05T08:16:35.571Z,42.60
2023-05-05T08:19:06.273Z,42.60
2023-05-05T08:21:45.891Z,43.00
2023-05-05T08:24:14.037Z,42.80
2023-05-05T08:26:43.679Z,41.70
2023-05-05T08:29:11.858Z,41.70
2023-05-05T08:31:40.151Z,41.40
2023-05-05T08:34:09.837Z,41.60
2023-05-05T08:36:37.984Z,41.40
2023-05-05T08:39:09.146Z,41.00
2023-05-05T08:41:39.691Z,40.80
2023-05-05T08:44:29.107Z,40.90
2023-05-05T08:46:57.787Z,42.20
2023-05-05T08:49:27.019Z,43.40
2023-05-05T08:51:56.617Z,43.70
2023-05-05T08:54:31.926Z,45.80
2023-05-05T08:57:02.957Z,46.00
2023-05-05T08:59:41.533Z,45.80
2023-05-05T09:02:24.076Z,46.40
2023-05-05T09:05:18.901Z,47.10
2023-05-05T09:07:53.670Z,47.60
2023-05-05T09:10:31.633Z,48.40
2023-05-05T09:13:05.568Z,49.90
2023-05-05T09:15:41.337Z,50.10
2023-05-05T09:18:12.077Z,51.50
2023-05-05T09:20:42.107Z,50.20
2023-05-05T09:23:15.485Z,50.20
2023-05-05T09:25:46.038Z,49.80
2023-05-05T09:28:15.726Z,50.80
2023-05-05T09:30:53.511Z,51.00
2023-05-05T09:33:31.296Z,51.40
2023-05-05T09:35:59.983Z,49.70
2023-05-05T09:38:31.011Z,48.80
2023-05-05T09:40:59.133Z,47.20
2023-05-05T09:43:29.985Z,46.20
2023-05-05T09:46:08.824Z,45.40
2023-05-05T09:48:37.416Z,45.50
2023-05-05T09:51:06.073Z,45.90
2023-05-05T09:53:40.355Z,45.50
2023-05-05T09:56:11.343Z,45.80
2023-05-05T09:58:39.937Z,47.90
2023-05-05T10:01:26.933Z,46.60
2023-05-05T10:03:55.308Z,46.00
2023-05-05T10:06:41.218Z,46.30
2023-05-05T10:09:09.432Z,46.10
2023-05-05T10:11:38.070Z,45.80
2023-05-05T10:14:09.616Z,45.80
2023-05-05T10:16:44.478Z,46.10
2023-05-05T10:19:15.478Z,46.50
2023-05-05T10:21:49.334Z,46.40
2023-05-05T10:24:25.556Z,47.30
2023-05-05T10:26:57.565Z,46.60
2023-05-05T10:29:34.486Z,46.90
2023-05-05T10:32:24.450Z,46.90
2023-05-05T10:34:59.003Z,46.60
2023-05-05T10:37:28.450Z,45.70
2023-05-05T10:40:00.338Z,45.90
2023-05-05T10:42:28.871Z,46.70
2023-05-05T10:44:57.242Z,46.50
2023-05-05T10:47:29.103Z,45.70
2023-05-05T10:50:07.675Z,46.80
2023-05-05T10:52:40.972Z,47.90
2023-05-05T10:58:51.042Z,47.30
2023-05-05T11:01:32.523Z,48.10
2023-05-05T11:04:22.091Z,49.00
2023-05-05T11:07:25.993Z,48.50
2023-05-05T11:13:20.108Z,49.50
2023-05-05T11:15:49.385Z,49.20
2023-05-05T11:18:40.366Z,49.80
2023-05-05T11:21:17.556Z,50.40
2023-05-05T11:23:50.988Z,50.90
2023-05-05T11:26:40.281Z,50.60
2023-05-05T11:29:11.193Z,51.10
2023-05-05T11:31:39.482Z,51.80
2023-05-05T11:34:29.183Z,51.30
2023-05-05T11:37:09.430Z,51.60
2023-05-05T11:39:47.545Z,52.50
2023-05-05T11:42:25.648Z,53.20
2023-05-05T11:44:54.696Z,53.60
2023-05-05T11:47:31.018Z,54.00
2023-05-05T11:49:59.436Z,53.70
2023-05-05T11:52:29.120Z,53.10
2023-05-05T11:55:03.879Z,52.90
2023-05-05T11:57:32.292Z,53.10
2023-05-05T12:00:05.470Z,53.60
2023-05-05T12:02:33.987Z,53.90
2023-05-05T12:05:02.755Z,54.00
2023-05-05T12:07:34.181Z,54.20
2023-05-05T12:10:02.546Z,54.70
2023-05-05T12:12:38.508Z,54.50
2023-05-05T12:15:08.147Z,55.00
2023-05-05T12:17:42.635Z,55.30
2023-05-05T12:20:14.342Z,55.50
2023-05-05T12:22:44.848Z,55.30
2023-05-05T12:25:13.001Z,55.40
2023-05-05T12:27:41.587Z,55.30
2023-05-05T12:30:15.131Z,55.70
2023-05-05T12:32:44.294Z,56.00
2023-05-05T12:35:13.625Z,56.40
2023-05-05T12:37:43.720Z,57.00
2023-05-05T12:40:45.334Z,56.80
2023-05-05T12:43:34.490Z,56.90
2023-05-05T12:46:08.561Z,56.90
2023-05-05T12:48:38.975Z,57.60
2023-05-05T12:51:18.900Z,57.90
2023-05-05T12:53:49.987Z,57.90
2023-05-05T12:56:37.561Z,58.40
2023-05-05T12:59:09.021Z,59.10
2023-05-05T13:01:38.362Z,60.00
2023-05-05T13:04:08.270Z,60.20
2023-05-05T13:06:37.789Z,60.40
2023-05-05T13:09:09.000Z,60.70
2023-05-05T13:11:38.289Z,60.50
2023-05-05T13:14:07.730Z,60.50
2023-05-05T13:16:35.974Z,60.10
2023-05-05T13:19:04.223Z,60.40
2023-05-05T13:21:32.791Z,60.40
2023-05-05T13:24:18.295Z,60.70
2023-05-05T13:26:50.734Z,60.80
2023-05-05T13:29:19.255Z,61.30
2023-05-05T13:31:47.612Z,61.10
2023-05-05T13:34:18.328Z,61.90
2023-05-05T13:36:46.539Z,61.20
2023-05-05T13:39:14.747Z,61.30
2023-05-05T13:41:44.860Z,61.60
2023-05-05T13:44:17.468Z,61.70
2023-05-05T13:46:45.621Z,62.00
2023-05-05T13:49:14.135Z,62.20
2023-05-05T13:51:42.337Z,61.30
2023-05-05T13:54:11.131Z,61.90
2023-05-05T13:56:39.372Z,62.70
2023-05-05T13:59:07.511Z,62.00
2023-05-05T14:01:37.306Z,62.30
2023-05-05T14:04:06.327Z,62.20
2023-05-05T14:06:36.711Z,62.30
2023-05-05T14:09:06.380Z,62.60
2023-05-05T14:11:34.932Z,63.00
2023-05-05T14:14:03.339Z,63.00
2023-05-05T14:16:31.561Z,63.50
2023-05-05T14:19:01.650Z,64.20
2023-05-05T14:21:29.847Z,64.00
2023-05-05T14:24:00.344Z,64.10
2023-05-05T14:26:28.523Z,64.10
2023-05-05T14:28:56.799Z,63.70
2023-05-05T14:31:24.997Z,63.80
2023-05-05T14:33:53.470Z,63.80
2023-05-05T14:36:23.583Z,64.00
2023-05-05T14:38:51.865Z,64.30
2023-05-05T14:41:22.455Z,64.50
2023-05-05T14:43:50.668Z,64.40
2023-05-05T14:46:19.018Z,63.80
2023-05-05T14:48:47.629Z,63.50
2023-05-05T14:51:16.444Z,63.80
2023-05-05T14:53:46.784Z,64.00
2023-05-05T14:56:15.326Z,63.40
2023-05-05T14:58:43.654Z,63.70
2023-05-05T15:01:11.856Z,64.20
2023-05-05T15:03:40.741Z,64.60
2023-05-05T15:06:09.528Z,64.40
2023-05-05T15:08:39.037Z,64.50
2023-05-05T15:11:08.809Z,63.70
2023-05-05T15:13:38.659Z,62.70
2023-05-05T15:16:07.952Z,62.10
2023-05-05T15:18:38.847Z,62.40
2023-05-05T15:21:07.135Z,62.20
2023-05-05T15:23:37.997Z,62.40
2023-05-05T15:26:06.375Z,62.50
2023-05-05T15:28:36.039Z,62.40
2023-05-05T15:31:05.982Z,62.60
2023-05-05T15:33:34.824Z,63.60
2023-05-05T15:36:03.091Z,62.90
2023-05-05T15:38:31.374Z,63.40
2023-05-05T15:40:59.779Z,63.90
2023-05-05T15:43:28.334Z,63.60
2023-05-05T15:45:58.086Z,63.80
2023-05-05T15:48:26.321Z,63.90
2023-05-05T15:50:54.571Z,64.30
2023-05-05T15:53:23.006Z,63.90
2023-05-05T15:55:51.387Z,64.00
2023-05-05T15:58:19.733Z,64.50
2023-05-05T16:00:50.423Z,64.80
2023-05-05T16:03:20.120Z,64.70
2023-05-05T16:05:48.528Z,65.10
2023-05-05T16:08:16.822Z,65.80
2023-05-05T16:10:45.254Z,65.90
2023-05-05T16:13:16.165Z,66.40
2023-05-05T16:15:44.738Z,66.90
2023-05-05T16:18:13.154Z,67.40
2023-05-05T16:20:42.872Z,67.40
2023-05-05T16:23:11.411Z,67.90
2023-05-05T16:25:39.857Z,68.00
2023-05-05T16:28:10.522Z,68.30
2023-05-05T16:30:39.921Z,68.50
2023-05-05T16:33:08.199Z,68.60
2023-05-05T16:35:36.762Z,68.50
2023-05-05T16:38:06.455Z,68.80
2023-05-05T16:40:38.139Z,69.10
2023-05-05T16:43:06.443Z,69.10
2023-05-05T16:45:34.677Z,68.90
2023-05-05T16:48:03.114Z,69.10
2023-05-05T16:50:31.548Z,69.20
2023-05-05T16:53:01.038Z,69.50
2023-05-05T16:55:32.973Z,70.40
2023-05-05T16:58:04.402Z,70.00
2023-05-05T17:00:32.628Z,70.10
2023-05-05T17:03:01.033Z,70.10
2023-05-05T17:05:29.513Z,70.30
2023-05-05T17:07:57.823Z,70.50
2023-05-05T17:10:26.036Z,71.50
2023-05-05T17:12:56.018Z,71.00
2023-05-05T17:15:26.513Z,71.40
2023-05-05T17:17:54.714Z,71.80
2023-05-05T17:20:23.294Z,72.00
2023-05-05T17:22:51.566Z,72.50
2023-05-05T17:25:19.977Z,73.00
2023-05-05T17:27:48.180Z,73.40
2023-05-05T17:30:17.905Z,74.40
2023-05-05T17:32:48.767Z,74.80
2023-05-05T17:35:17.072Z,75.40
2023-05-05T17:37:45.319Z,75.60
2023-05-05T17:40:13.756Z,76.00
2023-05-05T17:42:41.915Z,76.40
2023-05-05T17:45:11.521Z,77.00
2023-05-05T17:47:41.991Z,77.40
2023-05-05T17:50:11.834Z,77.80
2023-05-05T17:52:40.561Z,78.20
2023-05-05T17:55:09.764Z,78.40
2023-05-05T17:57:39.652Z,79.10
2023-05-05T18:00:10.535Z,79.10
2023-05-05T18:02:43.304Z,79.50
2023-05-05T18:05:17.626Z,80.10
2023-05-05T18:07:47.769Z,80.80
2023-05-05T18:10:16.686Z,80.90
2023-05-05T18:12:44.888Z,81.20
2023-05-05T18:15:13.387Z,81.70
2023-05-05T18:17:43.891Z,82.00
2023-05-05T18:20:12.801Z,82.20
2023-05-05T18:22:40.987Z,82.50
2023-05-05T18:25:10.238Z,82.90
2023-05-05T18:27:38.987Z,83.10
2023-05-05T18:30:08.456Z,83.50
2023-05-05T18:32:36.702Z,84.00
2023-05-05T18:35:07.418Z,84.10
2023-05-05T18:37:35.976Z,84.50
2023-05-05T18:40:04.359Z,84.60
2023-05-05T18:42:32.488Z,85.20
2023-05-05T18:45:00.629Z,85.40
2023-05-05T18:47:29.306Z,85.90
2023-05-05T18:49:57.489Z,86.10
2023-05-05T18:52:27.953Z,86.50
2023-05-05T18:54:56.189Z,86.90
2023-05-05T18:57:24.333Z,87.20
2023-05-05T18:59:52.500Z,87.70
2023-05-05T19:02:20.734Z,87.80
2023-05-05T19:04:48.995Z,88.10
2023-05-05T19:07:31.363Z,88.20
2023-05-05T19:10:05.617Z,88.40
2023-05-05T19:12:36.160Z,88.90
2023-05-05T19:15:08.454Z,89.10
2023-05-05T19:17:36.836Z,89.90
2023-05-05T19:20:05.546Z,90.10
2023-05-05T19:22:33.701Z,90.40
2023-05-05T19:25:01.898Z,90.60
2023-05-05T19:27:33.919Z,90.90
2023-05-05T19:30:06.547Z,91.20
2023-05-05T19:32:35.117Z,91.50
2023-05-05T19:35:03.955Z,91.80
2023-05-05T19:37:32.158Z,92.40
2023-05-05T19:40:00.353Z,92.70
2023-05-05T19:42:30.927Z,92.70
2023-05-05T19:44:59.739Z,92.90
2023-05-05T19:47:28.136Z,93.10
2023-05-05T19:49:56.639Z,93.50
2023-05-05T19:52:24.891Z,93.70
2023-05-05T19:54:53.131Z,94.00
2023-05-05T19:57:21.533Z,94.30
2023-05-05T19:59:53.298Z,94.70
2023-05-05T20:02:22.153Z,95.10
2023-05-05T20:04:50.580Z,95.50
2023-05-05T20:07:19.108Z,95.90
2023-05-05T20:09:48.205Z,96.30
2023-05-05T20:12:17.646Z,96.60
2023-05-05T20:14:46.214Z,96.80
2023-05-05T20:17:20.056Z,97.10
2023-05-05T20:19:48.681Z,97.50
2023-05-05T20:22:19.398Z,97.90
2023-05-05T20:24:48.174Z,98.40
2023-05-05T20:27:16.466Z,98.80
2023-05-05T20:29:44.665Z,99.10
2023-05-05T20:32:12.917Z,99.40
2023-05-05T20:34:45.173Z,99.60
2023-05-05T20:37:14.000Z,99.90
2023-05-05T20:39:43.800Z,99.90
2023-05-05T20:42:14.387Z,99.90
2023-05-05T20:44:42.842Z,99.90
2023-05-05T20:47:14.079Z,99.90
2023-05-05T20:49:42.254Z,99.90
2023-05-05T20:52:11.878Z,99.90
2023-05-05T20:54:40.264Z,99.90
2023-05-05T20:57:08.921Z,99.90
2023-05-05T20:59:37.147Z,99.90
2023-05-05T21:02:05.480Z,99.90
2023-05-05T21:04:33.772Z,99.90
2023-05-05T21:07:02.219Z,99.90
2023-05-05T21:09:31.908Z,99.90
2023-05-05T21:12:00.164Z,99.90
2023-05-05T21:14:29.390Z,99.90
2023-05-05T21:17:01.412Z,99.90
2023-05-05T21:19:29.687Z,99.90
2023-05-05T21:22:02.236Z,99.90
2023-05-05T21:24:31.845Z,99.90
2023-05-05T21:27:00.023Z,99.90
2023-05-05T21:29:28.296Z,99.90
2023-05-05T21:31:56.669Z,99.90
2023-05-05T21:34:25.057Z,99.90
2023-05-05T21:36:53.307Z,99.90
2023-05-05T21:39:21.539Z,99.90
2023-05-05T21:41:51.219Z,99.90
2023-05-05T21:44:19.491Z,99.90
2023-05-05T21:46:47.764Z,99.90
2023-05-05T21:49:17.455Z,99.90
2023-05-05T21:51:46.806Z,99.90
2023-05-05T21:54:14.997Z,99.90
2023-05-05T21:56:43.354Z,99.90
2023-05-05T21:59:17.083Z,99.90
2023-05-05T22:01:45.697Z,99.90
2023-05-05T22:04:13.850Z,99.90
2023-05-05T22:06:42.063Z,99.90
2023-05-05T22:09:10.353Z,99.90
2023-05-05T22:11:38.763Z,99.90
2023-05-05T22:14:06.922Z,99.90
2023-05-05T22:16:36.541Z,99.90
2023-05-05T22:19:04.798Z,99.90
2023-05-05T22:21:32.996Z,99.90
2023-05-05T22:24:01.251Z,99.90
2023-05-05T22:26:29.364Z,99.90
2023-05-05T22:28:57.786Z,99.90
2023-05-05T22:31:26.308Z,99.90
2023-05-05T22:33:55.897Z,99.90
2023-05-05T22:36:24.167Z,99.90
2023-05-05T22:38:52.508Z,99.90
2023-05-05T22:41:23.049Z,99.90
2023-05-05T22:43:51.456Z,99.90
2023-05-05T22:46:22.639Z,99.90
2023-05-05T22:48:55.455Z,99.90
2023-05-05T22:51:23.799Z,99.90
2023-05-05T22:53:55.419Z,99.90
2023-05-05T22:56:30.786Z,99.90
2023-05-05T22:58:59.169Z,99.90
2023-05-05T23:01:28.004Z,99.90
2023-05-05T23:03:58.671Z,99.90
2023-05-05T23:06:27.889Z,99.90
2023-05-05T23:09:03.559Z,99.90
2023-05-05T23:11:36.135Z,99.90
2023-05-05T23:14:05.378Z,99.90
2023-05-05T23:16:36.117Z,99.90
2023-05-05T23:19:05.671Z,99.90
2023-05-05T23:21:38.956Z,99.90
2023-05-05T23:24:16.459Z,99.90
2023-05-05T23:26:47.354Z,99.90
2023-05-05T23:29:15.738Z,99.90
2023-05-05T23:31:46.986Z,99.90
2023-05-05T23:34:18.295Z,99.90
2023-05-05T23:36:46.778Z,99.90
2023-05-05T23:39:15.061Z,99.90
2023-05-05T23:41:46.194Z,99.90
2023-05-05T23:44:14.592Z,99.90
2023-05-05T23:46:43.149Z,99.90
2023-05-05T23:49:11.416Z,99.90
2023-05-05T23:51:43.985Z,99.90
2023-05-05T23:54:12.193Z,99.90
2023-05-05T23:56:40.858Z,99.90
2023-05-05T23:59:09.142Z,99.90
